SLVR/VVI METAR and TAF weather

Enter ICAO airport designator
Station Type Date Time Source
SLVR METAR 2020/11/28 20:00 UTC NOAA

SLVR 282000Z 35010G21KT 9999 SCT020 FEW027CB 33/22 Q1009


Station Type Date Time Source
SLVR Decoded METAR 2020/11/28 20:00 UTC NOAA

Viru-Viru, Bolivia (SLVR) 17-38S 063-08W
Nov 28, 2020 - 03:00 PM EST / 2020.11.28 2000 UTC
Wind: from the N (350 degrees) at 12 MPH (10 KT) gusting to 24 MPH (21 KT):0
Visibility: greater than 7 mile(s):0
Sky conditions: partly cloudy
Weather: Cumulonimbus clouds observed
Temperature: 91 F (33 C)
Heat index: 97.5 F (36.4 C):1
Dew Point: 71 F (22 C)
Relative Humidity: 52%
Pressure (altimeter): 29.80 in. Hg (1009 hPa)
ob: SLVR 282000Z 35010G21KT 9999 SCT020 FEW027CB 33/22 Q1009
cycle: 20

Station Type Date Time Source
SLVR TAF 2020/11/28 18:58 UTC NOAA

TAF SLVR 281650Z 2818/2918 35010KT 9999 SCT015 TX33/2819Z TN23/2910Z
BECMG 2901/2904 VRB02KT NSC
TEMPO 2908/2911 SCT008

Example: see airport list